sensor_id;sensor_type;location;lat;lon;timestamp;temperature;humidity
20091;DHT22;10205;49.678;6.560;2023-03-19T00:02:01;15.00;59.50
20091;DHT22;10205;49.678;6.560;2023-03-19T00:04:30;15.00;59.60
20091;DHT22;10205;49.678;6.560;2023-03-19T00:06:57;15.00;59.70
20091;DHT22;10205;49.678;6.560;2023-03-19T00:09:24;15.00;59.60
20091;DHT22;10205;49.678;6.560;2023-03-19T00:11:52;14.90;59.50
20091;DHT22;10205;49.678;6.560;2023-03-19T00:14:19;14.90;59.50
20091;DHT22;10205;49.678;6.560;2023-03-19T00:16:46;14.90;59.60
20091;DHT22;10205;49.678;6.560;2023-03-19T00:19:13;14.90;59.60
20091;DHT22;10205;49.678;6.560;2023-03-19T00:21:41;14.80;59.70
20091;DHT22;10205;49.678;6.560;2023-03-19T00:24:08;14.80;59.90
20091;DHT22;10205;49.678;6.560;2023-03-19T00:26:36;14.80;60.00
20091;DHT22;10205;49.678;6.560;2023-03-19T00:29:04;14.80;59.90
20091;DHT22;10205;49.678;6.560;2023-03-19T00:31:32;14.70;60.00
20091;DHT22;10205;49.678;6.560;2023-03-19T00:34:00;14.70;60.00
20091;DHT22;10205;49.678;6.560;2023-03-19T00:36:28;14.70;60.10
20091;DHT22;10205;49.678;6.560;2023-03-19T00:38:57;14.70;60.30
20091;DHT22;10205;49.678;6.560;2023-03-19T00:41:24;14.70;60.30
20091;DHT22;10205;49.678;6.560;2023-03-19T00:43:54;14.70;60.20
20091;DHT22;10205;49.678;6.560;2023-03-19T00:46:23;14.70;61.20
20091;DHT22;10205;49.678;6.560;2023-03-19T00:48:51;14.60;60.30
20091;DHT22;10205;49.678;6.560;2023-03-19T00:51:20;14.60;60.30
20091;DHT22;10205;49.678;6.560;2023-03-19T00:53:49;14.60;60.00
20091;DHT22;10205;49.678;6.560;2023-03-19T00:56:19;14.60;60.00
20091;DHT22;10205;49.678;6.560;2023-03-19T00:58:46;14.60;60.10
20091;DHT22;10205;49.678;6.560;2023-03-19T01:01:16;14.60;60.30
20091;DHT22;10205;49.678;6.560;2023-03-19T01:03:43;14.50;60.40
20091;DHT22;10205;49.678;6.560;2023-03-19T01:06:12;14.50;60.40
20091;DHT22;10205;49.678;6.560;2023-03-19T01:08:39;14.50;60.40
20091;DHT22;10205;49.678;6.560;2023-03-19T01:11:08;14.50;60.50
20091;DHT22;10205;49.678;6.560;2023-03-19T01:13:38;14.50;60.50
20091;DHT22;10205;49.678;6.560;2023-03-19T01:16:06;14.40;60.50
20091;DHT22;10205;49.678;6.560;2023-03-19T01:18:34;14.40;60.50
20091;DHT22;10205;49.678;6.560;2023-03-19T01:21:01;14.40;60.50
20091;DHT22;10205;49.678;6.560;2023-03-19T01:23:28;14.40;60.40
20091;DHT22;10205;49.678;6.560;2023-03-19T01:25:56;14.40;61.40
20091;DHT22;10205;49.678;6.560;2023-03-19T01:28:23;14.30;60.50
20091;DHT22;10205;49.678;6.560;2023-03-19T01:30:52;14.30;60.60
20091;DHT22;10205;49.678;6.560;2023-03-19T01:33:19;14.30;60.60
20091;DHT22;10205;49.678;6.560;2023-03-19T01:35:46;14.30;60.60
20091;DHT22;10205;49.678;6.560;2023-03-19T01:38:13;14.20;60.70
20091;DHT22;10205;49.678;6.560;2023-03-19T01:40:44;14.20;60.70
20091;DHT22;10205;49.678;6.560;2023-03-19T01:43:15;14.20;60.90
20091;DHT22;10205;49.678;6.560;2023-03-19T01:45:45;14.20;60.90
20091;DHT22;10205;49.678;6.560;2023-03-19T01:48:20;14.20;60.90
20091;DHT22;10205;49.678;6.560;2023-03-19T01:50:52;14.10;61.00
20091;DHT22;10205;49.678;6.560;2023-03-19T01:53:23;14.10;60.80
20091;DHT22;10205;49.678;6.560;2023-03-19T01:55:55;14.10;60.90
20091;DHT22;10205;49.678;6.560;2023-03-19T01:58:25;14.10;60.80
20091;DHT22;10205;49.678;6.560;2023-03-19T02:00:54;14.00;60.80
20091;DHT22;10205;49.678;6.560;2023-03-19T02:03:24;14.00;60.90
20091;DHT22;10205;49.678;6.560;2023-03-19T02:05:52;14.00;61.90
20091;DHT22;10205;49.678;6.560;2023-03-19T02:08:22;14.00;61.10
20091;DHT22;10205;49.678;6.560;2023-03-19T02:10:51;13.90;61.10
20091;DHT22;10205;49.678;6.560;2023-03-19T02:13:20;13.90;61.20
20091;DHT22;10205;49.678;6.560;2023-03-19T02:15:48;13.90;61.20
20091;DHT22;10205;49.678;6.560;2023-03-19T02:18:16;13.90;61.20
20091;DHT22;10205;49.678;6.560;2023-03-19T02:20:48;13.80;61.20
20091;DHT22;10205;49.678;6.560;2023-03-19T02:23:29;13.80;61.40
20091;DHT22;10205;49.678;6.560;2023-03-19T02:26:08;13.80;61.50
20091;DHT22;10205;49.678;6.560;2023-03-19T02:28:38;13.80;61.50
20091;DHT22;10205;49.678;6.560;2023-03-19T02:31:07;13.70;61.30
20091;DHT22;10205;49.678;6.560;2023-03-19T02:33:34;13.70;61.40
20091;DHT22;10205;49.678;6.560;2023-03-19T02:36:03;13.70;61.50
20091;DHT22;10205;49.678;6.560;2023-03-19T02:38:33;13.70;61.50
20091;DHT22;10205;49.678;6.560;2023-03-19T02:41:02;13.60;61.50
20091;DHT22;10205;49.678;6.560;2023-03-19T02:43:34;13.60;61.60
20091;DHT22;10205;49.678;6.560;2023-03-19T02:46:05;13.60;61.70
20091;DHT22;10205;49.678;6.560;2023-03-19T02:48:35;13.60;61.90
20091;DHT22;10205;49.678;6.560;2023-03-19T02:51:02;13.50;61.80
20091;DHT22;10205;49.678;6.560;2023-03-19T02:53:29;13.50;61.70
20091;DHT22;10205;49.678;6.560;2023-03-19T02:55:57;13.50;61.70
20091;DHT22;10205;49.678;6.560;2023-03-19T02:58:24;13.50;61.70
20091;DHT22;10205;49.678;6.560;2023-03-19T03:00:52;13.50;61.70
20091;DHT22;10205;49.678;6.560;2023-03-19T03:03:19;13.40;61.50
20091;DHT22;10205;49.678;6.560;2023-03-19T03:05:46;13.40;61.40
20091;DHT22;10205;49.678;6.560;2023-03-19T03:08:13;13.40;61.40
20091;DHT22;10205;49.678;6.560;2023-03-19T03:10:40;13.30;61.70
20091;DHT22;10205;49.678;6.560;2023-03-19T03:13:07;13.30;61.80
20091;DHT22;10205;49.678;6.560;2023-03-19T03:15:35;13.30;61.80
20091;DHT22;10205;49.678;6.560;2023-03-19T03:18:03;13.20;61.80
20091;DHT22;10205;49.678;6.560;2023-03-19T03:20:30;13.20;61.80
20091;DHT22;10205;49.678;6.560;2023-03-19T03:22:57;13.10;61.70
20091;DHT22;10205;49.678;6.560;2023-03-19T03:25:25;13.10;61.90
20091;DHT22;10205;49.678;6.560;2023-03-19T03:27:52;13.10;62.10
20091;DHT22;10205;49.678;6.560;2023-03-19T03:30:19;13.00;62.10
20091;DHT22;10205;49.678;6.560;2023-03-19T03:32:49;13.00;62.30
20091;DHT22;10205;49.678;6.560;2023-03-19T03:35:18;13.00;62.50
20091;DHT22;10205;49.678;6.560;2023-03-19T03:37:47;12.90;62.30
20091;DHT22;10205;49.678;6.560;2023-03-19T03:40:14;12.90;62.30
20091;DHT22;10205;49.678;6.560;2023-03-19T03:42:42;12.90;62.50
20091;DHT22;10205;49.678;6.560;2023-03-19T03:45:10;12.90;62.30
20091;DHT22;10205;49.678;6.560;2023-03-19T03:47:37;12.80;62.40
20091;DHT22;10205;49.678;6.560;2023-03-19T03:50:06;12.80;62.60
20091;DHT22;10205;49.678;6.560;2023-03-19T03:52:37;12.80;62.80
20091;DHT22;10205;49.678;6.560;2023-03-19T03:55:05;12.70;62.90
20091;DHT22;10205;49.678;6.560;2023-03-19T03:57:33;12.70;63.00
20091;DHT22;10205;49.678;6.560;2023-03-19T04:00:01;12.60;63.10
20091;DHT22;10205;49.678;6.560;2023-03-19T04:02:29;12.60;63.90
20091;DHT22;10205;49.678;6.560;2023-03-19T04:04:58;12.60;63.20
20091;DHT22;10205;49.678;6.560;2023-03-19T04:07:25;12.60;63.40
20091;DHT22;10205;49.678;6.560;2023-03-19T04:09:56;12.50;63.40
20091;DHT22;10205;49.678;6.560;2023-03-19T04:12:23;12.50;63.60
20091;DHT22;10205;49.678;6.560;2023-03-19T04:14:50;12.50;63.60
20091;DHT22;10205;49.678;6.560;2023-03-19T04:17:17;12.50;63.60
20091;DHT22;10205;49.678;6.560;2023-03-19T04:19:45;12.50;63.60
20091;DHT22;10205;49.678;6.560;2023-03-19T04:22:12;12.50;63.70
20091;DHT22;10205;49.678;6.560;2023-03-19T04:24:39;12.50;63.70
20091;DHT22;10205;49.678;6.560;2023-03-19T04:27:07;12.50;63.80
20091;DHT22;10205;49.678;6.560;2023-03-19T04:29:35;12.40;63.80
20091;DHT22;10205;49.678;6.560;2023-03-19T04:32:02;12.50;63.80
20091;DHT22;10205;49.678;6.560;2023-03-19T04:34:29;12.40;63.80
20091;DHT22;10205;49.678;6.560;2023-03-19T04:36:56;12.50;63.90
20091;DHT22;10205;49.678;6.560;2023-03-19T04:39:23;12.40;63.90
20091;DHT22;10205;49.678;6.560;2023-03-19T04:41:50;12.40;63.90
20091;DHT22;10205;49.678;6.560;2023-03-19T04:44:19;12.40;63.90
20091;DHT22;10205;49.678;6.560;2023-03-19T04:46:46;12.40;64.00
20091;DHT22;10205;49.678;6.560;2023-03-19T04:49:13;12.40;64.00
20091;DHT22;10205;49.678;6.560;2023-03-19T04:51:40;12.40;64.00
20091;DHT22;10205;49.678;6.560;2023-03-19T04:54:07;12.40;64.00
20091;DHT22;10205;49.678;6.560;2023-03-19T04:56:34;12.40;64.20
20091;DHT22;10205;49.678;6.560;2023-03-19T04:59:01;12.30;64.30
20091;DHT22;10205;49.678;6.560;2023-03-19T05:01:29;12.30;64.40
20091;DHT22;10205;49.678;6.560;2023-03-19T05:03:57;12.30;64.60
20091;DHT22;10205;49.678;6.560;2023-03-19T05:06:24;12.30;64.60
20091;DHT22;10205;49.678;6.560;2023-03-19T05:08:51;12.20;64.80
20091;DHT22;10205;49.678;6.560;2023-03-19T05:11:18;12.20;64.80
20091;DHT22;10205;49.678;6.560;2023-03-19T05:13:46;12.20;64.80
20091;DHT22;10205;49.678;6.560;2023-03-19T05:16:13;12.20;65.00
20091;DHT22;10205;49.678;6.560;2023-03-19T05:18:41;12.20;65.30
20091;DHT22;10205;49.678;6.560;2023-03-19T05:21:09;12.20;65.60
20091;DHT22;10205;49.678;6.560;2023-03-19T05:23:37;12.20;65.30
20091;DHT22;10205;49.678;6.560;2023-03-19T05:26:05;12.20;65.60
20091;DHT22;10205;49.678;6.560;2023-03-19T05:28:33;12.20;65.60
20091;DHT22;10205;49.678;6.560;2023-03-19T05:31:00;12.20;65.50
20091;DHT22;10205;49.678;6.560;2023-03-19T05:33:29;12.20;65.40
20091;DHT22;10205;49.678;6.560;2023-03-19T05:35:58;12.20;65.30
20091;DHT22;10205;49.678;6.560;2023-03-19T05:38:25;12.20;65.30
20091;DHT22;10205;49.678;6.560;2023-03-19T05:40:52;12.20;66.30
20091;DHT22;10205;49.678;6.560;2023-03-19T05:43:19;12.20;65.40
20091;DHT22;10205;49.678;6.560;2023-03-19T05:45:49;12.20;65.30
20091;DHT22;10205;49.678;6.560;2023-03-19T05:48:17;12.20;65.50
20091;DHT22;10205;49.678;6.560;2023-03-19T05:50:44;12.20;66.00
20091;DHT22;10205;49.678;6.560;2023-03-19T05:53:13;12.20;66.00
20091;DHT22;10205;49.678;6.560;2023-03-19T05:55:40;12.20;65.90
20091;DHT22;10205;49.678;6.560;2023-03-19T05:58:11;12.20;65.80
20091;DHT22;10205;49.678;6.560;2023-03-19T06:00:38;12.20;65.90
20091;DHT22;10205;49.678;6.560;2023-03-19T06:03:06;12.20;65.80
20091;DHT22;10205;49.678;6.560;2023-03-19T06:05:33;12.20;65.70
20091;DHT22;10205;49.678;6.560;2023-03-19T06:08:00;12.20;65.60
20091;DHT22;10205;49.678;6.560;2023-03-19T06:10:29;12.20;65.60
20091;DHT22;10205;49.678;6.560;2023-03-19T06:12:56;12.20;65.90
20091;DHT22;10205;49.678;6.560;2023-03-19T06:15:23;12.20;65.90
20091;DHT22;10205;49.678;6.560;2023-03-19T06:17:51;12.20;65.70
20091;DHT22;10205;49.678;6.560;2023-03-19T06:20:18;12.20;65.60
20091;DHT22;10205;49.678;6.560;2023-03-19T06:22:45;12.20;65.70
20091;DHT22;10205;49.678;6.560;2023-03-19T06:25:12;12.20;65.70
20091;DHT22;10205;49.678;6.560;2023-03-19T06:27:40;12.20;66.00
20091;DHT22;10205;49.678;6.560;2023-03-19T06:30:08;12.20;66.30
20091;DHT22;10205;49.678;6.560;2023-03-19T06:32:36;12.20;66.00
20091;DHT22;10205;49.678;6.560;2023-03-19T06:35:04;12.20;66.60
20091;DHT22;10205;49.678;6.560;2023-03-19T06:37:35;12.20;66.50
20091;DHT22;10205;49.678;6.560;2023-03-19T06:40:03;12.20;66.40
20091;DHT22;10205;49.678;6.560;2023-03-19T06:42:31;12.20;66.30
20091;DHT22;10205;49.678;6.560;2023-03-19T06:45:00;12.20;66.30
20091;DHT22;10205;49.678;6.560;2023-03-19T06:47:27;12.20;66.20
20091;DHT22;10205;49.678;6.560;2023-03-19T06:49:56;12.20;66.70
20091;DHT22;10205;49.678;6.560;2023-03-19T06:52:24;12.20;67.10
20091;DHT22;10205;49.678;6.560;2023-03-19T06:54:51;12.20;67.10
20091;DHT22;10205;49.678;6.560;2023-03-19T06:57:18;12.20;67.10
20091;DHT22;10205;49.678;6.560;2023-03-19T06:59:45;12.20;67.10
20091;DHT22;10205;49.678;6.560;2023-03-19T07:02:14;12.20;67.10
20091;DHT22;10205;49.678;6.560;2023-03-19T07:04:41;12.20;67.80
20091;DHT22;10205;49.678;6.560;2023-03-19T07:07:08;12.20;67.50
20091;DHT22;10205;49.678;6.560;2023-03-19T07:09:35;12.20;67.20
20091;DHT22;10205;49.678;6.560;2023-03-19T07:12:03;12.20;67.10
20091;DHT22;10205;49.678;6.560;2023-03-19T07:14:30;12.20;68.10
20091;DHT22;10205;49.678;6.560;2023-03-19T07:16:57;12.20;67.90
20091;DHT22;10205;49.678;6.560;2023-03-19T07:19:26;12.20;68.60
20091;DHT22;10205;49.678;6.560;2023-03-19T07:21:53;12.20;68.90
20091;DHT22;10205;49.678;6.560;2023-03-19T07:24:20;12.20;69.00
20091;DHT22;10205;49.678;6.560;2023-03-19T07:26:48;12.30;69.20
20091;DHT22;10205;49.678;6.560;2023-03-19T07:29:16;12.30;68.90
20091;DHT22;10205;49.678;6.560;2023-03-19T07:31:43;12.30;68.70
20091;DHT22;10205;49.678;6.560;2023-03-19T07:34:10;12.30;68.60
20091;DHT22;10205;49.678;6.560;2023-03-19T07:36:38;12.30;68.30
20091;DHT22;10205;49.678;6.560;2023-03-19T07:39:05;12.30;68.60
20091;DHT22;10205;49.678;6.560;2023-03-19T07:41:32;12.30;69.00
20091;DHT22;10205;49.678;6.560;2023-03-19T07:44:00;12.30;69.00
20091;DHT22;10205;49.678;6.560;2023-03-19T07:46:27;12.30;69.20
20091;DHT22;10205;49.678;6.560;2023-03-19T07:48:54;12.30;69.60
20091;DHT22;10205;49.678;6.560;2023-03-19T07:51:21;12.30;69.70
20091;DHT22;10205;49.678;6.560;2023-03-19T07:53:49;12.30;70.10
20091;DHT22;10205;49.678;6.560;2023-03-19T07:56:16;12.30;70.20
20091;DHT22;10205;49.678;6.560;2023-03-19T07:58:43;12.20;69.80
20091;DHT22;10205;49.678;6.560;2023-03-19T08:01:10;12.30;69.90
20091;DHT22;10205;49.678;6.560;2023-03-19T08:03:37;12.30;69.80
20091;DHT22;10205;49.678;6.560;2023-03-19T08:06:05;12.30;69.70
20091;DHT22;10205;49.678;6.560;2023-03-19T08:08:32;12.30;70.10
20091;DHT22;10205;49.678;6.560;2023-03-19T08:11:00;12.30;70.20
20091;DHT22;10205;49.678;6.560;2023-03-19T08:13:28;12.30;71.00
20091;DHT22;10205;49.678;6.560;2023-03-19T08:15:56;12.30;71.40
20091;DHT22;10205;49.678;6.560;2023-03-19T08:18:23;12.40;71.40
20091;DHT22;10205;49.678;6.560;2023-03-19T08:20:50;12.40;71.00
20091;DHT22;10205;49.678;6.560;2023-03-19T08:23:17;12.40;71.30
20091;DHT22;10205;49.678;6.560;2023-03-19T08:25:44;12.40;71.20
20091;DHT22;10205;49.678;6.560;2023-03-19T08:28:13;12.40;70.90
20091;DHT22;10205;49.678;6.560;2023-03-19T08:30:40;12.40;70.90
20091;DHT22;10205;49.678;6.560;2023-03-19T08:33:07;12.40;71.00
20091;DHT22;10205;49.678;6.560;2023-03-19T08:35:36;12.40;71.10
20091;DHT22;10205;49.678;6.560;2023-03-19T08:38:04;12.40;71.50
20091;DHT22;10205;49.678;6.560;2023-03-19T08:40:31;12.40;71.50
20091;DHT22;10205;49.678;6.560;2023-03-19T08:42:58;12.50;71.20
20091;DHT22;10205;49.678;6.560;2023-03-19T08:45:27;12.50;71.40
20091;DHT22;10205;49.678;6.560;2023-03-19T08:47:54;12.50;71.40
20091;DHT22;10205;49.678;6.560;2023-03-19T08:50:22;12.50;71.20
20091;DHT22;10205;49.678;6.560;2023-03-19T08:52:50;12.50;71.30
20091;DHT22;10205;49.678;6.560;2023-03-19T08:55:17;12.60;71.60
20091;DHT22;10205;49.678;6.560;2023-03-19T08:57:46;12.50;72.00
20091;DHT22;10205;49.678;6.560;2023-03-19T09:00:14;12.50;71.90
20091;DHT22;10205;49.678;6.560;2023-03-19T09:02:43;12.60;71.90
20091;DHT22;10205;49.678;6.560;2023-03-19T09:05:10;12.60;71.70
20091;DHT22;10205;49.678;6.560;2023-03-19T09:07:37;12.60;72.00
20091;DHT22;10205;49.678;6.560;2023-03-19T09:10:05;12.60;72.00
20091;DHT22;10205;49.678;6.560;2023-03-19T09:12:33;12.60;72.20
20091;DHT22;10205;49.678;6.560;2023-03-19T09:15:00;12.60;71.80
20091;DHT22;10205;49.678;6.560;2023-03-19T09:17:28;12.60;71.90
20091;DHT22;10205;49.678;6.560;2023-03-19T09:19:56;12.70;72.00
20091;DHT22;10205;49.678;6.560;2023-03-19T09:22:24;12.70;72.70
20091;DHT22;10205;49.678;6.560;2023-03-19T09:24:51;12.70;72.90
20091;DHT22;10205;49.678;6.560;2023-03-19T09:27:18;12.70;73.20
20091;DHT22;10205;49.678;6.560;2023-03-19T09:29:45;12.70;73.40
20091;DHT22;10205;49.678;6.560;2023-03-19T09:32:12;12.70;73.00
20091;DHT22;10205;49.678;6.560;2023-03-19T09:34:39;12.80;72.60
20091;DHT22;10205;49.678;6.560;2023-03-19T09:37:08;12.80;72.90
20091;DHT22;10205;49.678;6.560;2023-03-19T09:39:36;12.80;73.30
20091;DHT22;10205;49.678;6.560;2023-03-19T09:42:17;12.90;73.80
20091;DHT22;10205;49.678;6.560;2023-03-19T09:44:57;12.90;74.70
20091;DHT22;10205;49.678;6.560;2023-03-19T09:47:29;12.90;73.40
20091;DHT22;10205;49.678;6.560;2023-03-19T09:49:59;13.00;73.40
20091;DHT22;10205;49.678;6.560;2023-03-19T09:52:40;13.00;73.60
20091;DHT22;10205;49.678;6.560;2023-03-19T09:55:20;13.10;74.70
20091;DHT22;10205;49.678;6.560;2023-03-19T09:57:57;13.10;73.60
20091;DHT22;10205;49.678;6.560;2023-03-19T10:00:27;13.20;73.30
20091;DHT22;10205;49.678;6.560;2023-03-19T10:03:03;13.20;73.50
20091;DHT22;10205;49.678;6.560;2023-03-19T10:05:43;13.20;74.50
20091;DHT22;10205;49.678;6.560;2023-03-19T10:08:36;13.30;74.40
20091;DHT22;10205;49.678;6.560;2023-03-19T10:14:35;13.40;74.20
20091;DHT22;10205;49.678;6.560;2023-03-19T10:17:28;13.50;75.30
20091;DHT22;10205;49.678;6.560;2023-03-19T10:20:02;13.50;74.00
20091;DHT22;10205;49.678;6.560;2023-03-19T10:22:35;13.60;74.10
20091;DHT22;10205;49.678;6.560;2023-03-19T10:25:10;13.60;73.30
20091;DHT22;10205;49.678;6.560;2023-03-19T10:27:45;13.60;74.00
20091;DHT22;10205;49.678;6.560;2023-03-19T10:30:18;13.70;73.20
20091;DHT22;10205;49.678;6.560;2023-03-19T10:32:52;13.70;72.90
20091;DHT22;10205;49.678;6.560;2023-03-19T10:35:38;13.70;74.00
20091;DHT22;10205;49.678;6.560;2023-03-19T10:38:19;13.80;73.30
20091;DHT22;10205;49.678;6.560;2023-03-19T10:41:02;13.80;73.70
20091;DHT22;10205;49.678;6.560;2023-03-19T10:43:39;13.80;74.20
20091;DHT22;10205;49.678;6.560;2023-03-19T10:46:11;13.90;74.30
20091;DHT22;10205;49.678;6.560;2023-03-19T10:48:42;13.90;74.10
20091;DHT22;10205;49.678;6.560;2023-03-19T10:51:13;14.00;73.40
20091;DHT22;10205;49.678;6.560;2023-03-19T10:53:42;14.00;73.50
20091;DHT22;10205;49.678;6.560;2023-03-19T10:56:19;14.00;73.20
20091;DHT22;10205;49.678;6.560;2023-03-19T10:58:58;14.00;73.60
20091;DHT22;10205;49.678;6.560;2023-03-19T11:01:27;14.10;73.50
20091;DHT22;10205;49.678;6.560;2023-03-19T11:04:00;14.10;73.00
20091;DHT22;10205;49.678;6.560;2023-03-19T11:06:31;14.10;73.10
20091;DHT22;10205;49.678;6.560;2023-03-19T11:09:01;14.20;73.60
20091;DHT22;10205;49.678;6.560;2023-03-19T11:11:44;14.20;73.20
20091;DHT22;10205;49.678;6.560;2023-03-19T11:14:15;14.20;72.60
20091;DHT22;10205;49.678;6.560;2023-03-19T11:16:53;14.30;73.10
20091;DHT22;10205;49.678;6.560;2023-03-19T11:19:24;14.30;73.10
20091;DHT22;10205;49.678;6.560;2023-03-19T11:22:08;14.30;72.80
20091;DHT22;10205;49.678;6.560;2023-03-19T11:24:42;14.40;73.10
20091;DHT22;10205;49.678;6.560;2023-03-19T11:27:18;14.40;73.00
20091;DHT22;10205;49.678;6.560;2023-03-19T11:29:52;14.50;72.60
20091;DHT22;10205;49.678;6.560;2023-03-19T11:32:48;14.50;72.90
20091;DHT22;10205;49.678;6.560;2023-03-19T11:35:27;14.50;73.60
20091;DHT22;10205;49.678;6.560;2023-03-19T11:37:58;14.60;73.00
20091;DHT22;10205;49.678;6.560;2023-03-19T11:40:33;14.60;73.20
20091;DHT22;10205;49.678;6.560;2023-03-19T11:43:40;14.60;73.00
20091;DHT22;10205;49.678;6.560;2023-03-19T11:46:25;14.70;72.50
20091;DHT22;10205;49.678;6.560;2023-03-19T11:49:40;14.70;72.60
20091;DHT22;10205;49.678;6.560;2023-03-19T11:52:23;14.80;73.20
20091;DHT22;10205;49.678;6.560;2023-03-19T11:55:07;14.80;73.60
20091;DHT22;10205;49.678;6.560;2023-03-19T11:58:00;14.80;73.40
20091;DHT22;10205;49.678;6.560;2023-03-19T12:00:45;14.90;73.50
20091;DHT22;10205;49.678;6.560;2023-03-19T12:03:55;14.90;73.40
20091;DHT22;10205;49.678;6.560;2023-03-19T12:06:52;14.90;73.00
20091;DHT22;10205;49.678;6.560;2023-03-19T12:09:31;15.00;72.40
20091;DHT22;10205;49.678;6.560;2023-03-19T12:12:13;15.00;72.30
20091;DHT22;10205;49.678;6.560;2023-03-19T12:14:58;15.00;73.30
20091;DHT22;10205;49.678;6.560;2023-03-19T12:17:43;15.10;72.90
20091;DHT22;10205;49.678;6.560;2023-03-19T12:20:36;15.10;72.70
20091;DHT22;10205;49.678;6.560;2023-03-19T12:23:20;15.10;72.60
20091;DHT22;10205;49.678;6.560;2023-03-19T12:26:01;15.20;73.10
20091;DHT22;10205;49.678;6.560;2023-03-19T12:28:32;15.20;73.20
20091;DHT22;10205;49.678;6.560;2023-03-19T12:31:21;15.20;73.00
20091;DHT22;10205;49.678;6.560;2023-03-19T12:34:16;15.30;72.20
20091;DHT22;10205;49.678;6.560;2023-03-19T12:36:52;15.30;72.10
20091;DHT22;10205;49.678;6.560;2023-03-19T12:39:26;15.40;72.50
20091;DHT22;10205;49.678;6.560;2023-03-19T12:41:59;15.40;72.10
20091;DHT22;10205;49.678;6.560;2023-03-19T12:44:31;15.40;71.90
20091;DHT22;10205;49.678;6.560;2023-03-19T12:47:04;15.50;72.50
20091;DHT22;10205;49.678;6.560;2023-03-19T12:49:38;15.50;72.90
20091;DHT22;10205;49.678;6.560;2023-03-19T12:52:19;15.50;72.10
20091;DHT22;10205;49.678;6.560;2023-03-19T12:54:54;15.50;72.50
20091;DHT22;10205;49.678;6.560;2023-03-19T12:57:32;15.60;73.00
20091;DHT22;10205;49.678;6.560;2023-03-19T13:00:07;15.60;72.40
20091;DHT22;10205;49.678;6.560;2023-03-19T13:02:41;15.60;72.00
20091;DHT22;10205;49.678;6.560;2023-03-19T13:05:20;15.70;72.00
20091;DHT22;10205;49.678;6.560;2023-03-19T13:07:58;15.70;71.90
20091;DHT22;10205;49.678;6.560;2023-03-19T13:10:30;15.70;72.60
20091;DHT22;10205;49.678;6.560;2023-03-19T13:13:01;15.70;72.10
20091;DHT22;10205;49.678;6.560;2023-03-19T13:15:38;15.70;72.30
20091;DHT22;10205;49.678;6.560;2023-03-19T13:18:18;15.80;72.10
20091;DHT22;10205;49.678;6.560;2023-03-19T13:21:01;15.80;72.20
20091;DHT22;10205;49.678;6.560;2023-03-19T13:23:44;15.80;71.40
20091;DHT22;10205;49.678;6.560;2023-03-19T13:26:15;15.90;72.10
20091;DHT22;10205;49.678;6.560;2023-03-19T13:28:55;15.90;71.80
20091;DHT22;10205;49.678;6.560;2023-03-19T13:31:31;15.90;71.90
20091;DHT22;10205;49.678;6.560;2023-03-19T13:34:02;16.00;72.10
20091;DHT22;10205;49.678;6.560;2023-03-19T13:36:36;16.00;72.20
20091;DHT22;10205;49.678;6.560;2023-03-19T13:39:12;16.00;72.50
20091;DHT22;10205;49.678;6.560;2023-03-19T13:41:50;16.10;72.10
20091;DHT22;10205;49.678;6.560;2023-03-19T13:44:33;16.10;71.40
20091;DHT22;10205;49.678;6.560;2023-03-19T13:53:39;16.20;70.70
20091;DHT22;10205;49.678;6.560;2023-03-19T13:56:09;16.30;70.50
20091;DHT22;10205;49.678;6.560;2023-03-19T13:58:47;16.30;70.50
20091;DHT22;10205;49.678;6.560;2023-03-19T14:01:37;16.30;70.50
20091;DHT22;10205;49.678;6.560;2023-03-19T14:04:17;16.30;70.80
20091;DHT22;10205;49.678;6.560;2023-03-19T14:06:49;16.30;70.10
20091;DHT22;10205;49.678;6.560;2023-03-19T14:09:38;16.40;69.40
20091;DHT22;10205;49.678;6.560;2023-03-19T14:12:09;16.40;69.50
20091;DHT22;10205;49.678;6.560;2023-03-19T14:14:42;16.40;69.20
20091;DHT22;10205;49.678;6.560;2023-03-19T14:17:14;16.50;69.80
20091;DHT22;10205;49.678;6.560;2023-03-19T14:19:44;16.50;70.30
20091;DHT22;10205;49.678;6.560;2023-03-19T14:22:19;16.50;69.90
20091;DHT22;10205;49.678;6.560;2023-03-19T14:24:55;16.50;69.60
20091;DHT22;10205;49.678;6.560;2023-03-19T14:27:31;16.60;70.50
20091;DHT22;10205;49.678;6.560;2023-03-19T14:30:06;16.60;69.50
20091;DHT22;10205;49.678;6.560;2023-03-19T14:32:37;16.70;69.70
20091;DHT22;10205;49.678;6.560;2023-03-19T14:35:12;16.70;69.30
20091;DHT22;10205;49.678;6.560;2023-03-19T14:37:45;16.70;69.00
20091;DHT22;10205;49.678;6.560;2023-03-19T14:40:19;16.80;69.00
20091;DHT22;10205;49.678;6.560;2023-03-19T14:42:57;16.80;68.50
20091;DHT22;10205;49.678;6.560;2023-03-19T14:45:45;16.80;68.20
20091;DHT22;10205;49.678;6.560;2023-03-19T14:48:42;16.80;68.00
20091;DHT22;10205;49.678;6.560;2023-03-19T14:51:44;16.90;68.00
20091;DHT22;10205;49.678;6.560;2023-03-19T14:54:32;16.90;67.70
20091;DHT22;10205;49.678;6.560;2023-03-19T14:57:15;16.90;68.00
20091;DHT22;10205;49.678;6.560;2023-03-19T14:59:43;16.90;67.50
20091;DHT22;10205;49.678;6.560;2023-03-19T15:02:29;17.00;67.70
20091;DHT22;10205;49.678;6.560;2023-03-19T15:05:01;17.00;68.00
20091;DHT22;10205;49.678;6.560;2023-03-19T15:07:33;17.00;67.80
20091;DHT22;10205;49.678;6.560;2023-03-19T15:10:05;17.00;67.50
20091;DHT22;10205;49.678;6.560;2023-03-19T15:16:04;17.00;67.20
20091;DHT22;10205;49.678;6.560;2023-03-19T15:18:39;17.10;67.20
20091;DHT22;10205;49.678;6.560;2023-03-19T15:21:07;17.10;66.90
20091;DHT22;10205;49.678;6.560;2023-03-19T15:23:35;17.10;66.80
20091;DHT22;10205;49.678;6.560;2023-03-19T15:26:05;17.10;66.60
20091;DHT22;10205;49.678;6.560;2023-03-19T15:28:46;17.10;66.50
20091;DHT22;10205;49.678;6.560;2023-03-19T15:31:14;17.20;66.10
20091;DHT22;10205;49.678;6.560;2023-03-19T15:33:43;17.20;66.40
20091;DHT22;10205;49.678;6.560;2023-03-19T15:36:14;17.20;66.40
20091;DHT22;10205;49.678;6.560;2023-03-19T15:38:46;17.20;66.30
20091;DHT22;10205;49.678;6.560;2023-03-19T15:41:16;17.20;67.10
20091;DHT22;10205;49.678;6.560;2023-03-19T15:43:46;17.20;66.20
20091;DHT22;10205;49.678;6.560;2023-03-19T15:46:16;17.20;66.00
20091;DHT22;10205;49.678;6.560;2023-03-19T15:48:48;17.20;66.30
20091;DHT22;10205;49.678;6.560;2023-03-19T15:51:20;17.20;66.30
20091;DHT22;10205;49.678;6.560;2023-03-19T15:53:49;17.20;66.10
20091;DHT22;10205;49.678;6.560;2023-03-19T15:56:17;17.20;66.10
20091;DHT22;10205;49.678;6.560;2023-03-19T15:58:49;17.20;66.10
20091;DHT22;10205;49.678;6.560;2023-03-19T16:01:18;17.20;66.20
20091;DHT22;10205;49.678;6.560;2023-03-19T16:03:50;17.20;66.10
20091;DHT22;10205;49.678;6.560;2023-03-19T16:06:24;17.10;66.00
20091;DHT22;10205;49.678;6.560;2023-03-19T16:08:54;17.20;66.20
20091;DHT22;10205;49.678;6.560;2023-03-19T16:11:33;17.20;67.10